sensor_id;sensor_type;location;lat;lon;timestamp;temperature;humidity
44509;DHT22;30214;52.246;14.408;2023-08-07T00:02:15;13.90;99.90
44509;DHT22;30214;52.246;14.408;2023-08-07T00:04:42;13.90;99.90
44509;DHT22;30214;52.246;14.408;2023-08-07T00:07:09;13.90;99.90
44509;DHT22;30214;52.246;14.408;2023-08-07T00:09:36;13.90;99.90
44509;DHT22;30214;52.246;14.408;2023-08-07T00:12:05;13.90;99.90
44509;DHT22;30214;52.246;14.408;2023-08-07T00:14:32;13.90;99.90
44509;DHT22;30214;52.246;14.408;2023-08-07T00:16:59;14.00;99.90
44509;DHT22;30214;52.246;14.408;2023-08-07T00:19:26;14.00;99.90
44509;DHT22;30214;52.246;14.408;2023-08-07T00:21:53;14.00;99.90
44509;DHT22;30214;52.246;14.408;2023-08-07T00:24:20;14.10;99.90
44509;DHT22;30214;52.246;14.408;2023-08-07T00:26:47;14.10;99.90
44509;DHT22;30214;52.246;14.408;2023-08-07T00:29:15;14.00;99.90
44509;DHT22;30214;52.246;14.408;2023-08-07T00:31:42;14.00;99.90
44509;DHT22;30214;52.246;14.408;2023-08-07T00:34:09;14.00;99.90
44509;DHT22;30214;52.246;14.408;2023-08-07T00:36:36;14.00;99.90
44509;DHT22;30214;52.246;14.408;2023-08-07T00:39:05;14.00;99.90
44509;DHT22;30214;52.246;14.408;2023-08-07T00:41:38;14.00;99.90
44509;DHT22;30214;52.246;14.408;2023-08-07T00:44:05;14.00;99.90
44509;DHT22;30214;52.246;14.408;2023-08-07T00:46:35;13.90;99.90
44509;DHT22;30214;52.246;14.408;2023-08-07T00:49:05;13.90;99.90
44509;DHT22;30214;52.246;14.408;2023-08-07T00:51:33;13.80;99.90
44509;DHT22;30214;52.246;14.408;2023-08-07T00:54:01;13.70;99.90
44509;DHT22;30214;52.246;14.408;2023-08-07T00:56:30;13.70;99.90
44509;DHT22;30214;52.246;14.408;2023-08-07T00:58:58;13.60;99.90
44509;DHT22;30214;52.246;14.408;2023-08-07T01:01:25;13.50;99.90
44509;DHT22;30214;52.246;14.408;2023-08-07T01:03:54;13.60;99.90
44509;DHT22;30214;52.246;14.408;2023-08-07T01:06:21;13.60;99.90
44509;DHT22;30214;52.246;14.408;2023-08-07T01:08:48;13.60;99.90
44509;DHT22;30214;52.246;14.408;2023-08-07T01:11:22;13.60;99.90
44509;DHT22;30214;52.246;14.408;2023-08-07T01:13:59;13.60;99.90
44509;DHT22;30214;52.246;14.408;2023-08-07T01:16:31;13.50;99.90
44509;DHT22;30214;52.246;14.408;2023-08-07T01:19:03;13.50;99.90
44509;DHT22;30214;52.246;14.408;2023-08-07T01:21:33;13.60;99.90
44509;DHT22;30214;52.246;14.408;2023-08-07T01:24:01;13.50;99.90
44509;DHT22;30214;52.246;14.408;2023-08-07T01:26:28;13.60;99.90
44509;DHT22;30214;52.246;14.408;2023-08-07T01:29:02;13.50;99.90
44509;DHT22;30214;52.246;14.408;2023-08-07T01:31:33;13.50;99.90
44509;DHT22;30214;52.246;14.408;2023-08-07T01:34:05;13.40;99.90
44509;DHT22;30214;52.246;14.408;2023-08-07T01:36:34;13.40;99.90
44509;DHT22;30214;52.246;14.408;2023-08-07T01:39:03;13.40;99.90
44509;DHT22;30214;52.246;14.408;2023-08-07T01:41:32;13.40;99.90
44509;DHT22;30214;52.246;14.408;2023-08-07T01:44:00;13.30;99.90
44509;DHT22;30214;52.246;14.408;2023-08-07T01:46:29;13.30;99.90
44509;DHT22;30214;52.246;14.408;2023-08-07T01:48:55;13.30;99.90
44509;DHT22;30214;52.246;14.408;2023-08-07T01:51:22;13.40;99.90
44509;DHT22;30214;52.246;14.408;2023-08-07T01:53:50;13.40;99.90
44509;DHT22;30214;52.246;14.408;2023-08-07T01:56:18;13.30;99.90
44509;DHT22;30214;52.246;14.408;2023-08-07T01:58:45;13.30;99.90
44509;DHT22;30214;52.246;14.408;2023-08-07T02:01:12;13.30;99.90
44509;DHT22;30214;52.246;14.408;2023-08-07T02:03:41;13.40;99.90
44509;DHT22;30214;52.246;14.408;2023-08-07T02:06:08;13.40;99.90
44509;DHT22;30214;52.246;14.408;2023-08-07T02:08:35;13.40;99.90
44509;DHT22;30214;52.246;14.408;2023-08-07T02:11:02;13.40;99.90
44509;DHT22;30214;52.246;14.408;2023-08-07T02:13:31;13.40;99.90
44509;DHT22;30214;52.246;14.408;2023-08-07T02:15:58;13.50;99.90
44509;DHT22;30214;52.246;14.408;2023-08-07T02:18:25;13.50;99.90
44509;DHT22;30214;52.246;14.408;2023-08-07T02:20:52;13.50;99.90
44509;DHT22;30214;52.246;14.408;2023-08-07T02:23:19;13.60;99.90
44509;DHT22;30214;52.246;14.408;2023-08-07T02:25:46;13.60;99.90
44509;DHT22;30214;52.246;14.408;2023-08-07T02:28:13;13.60;99.90
44509;DHT22;30214;52.246;14.408;2023-08-07T02:30:48;13.50;99.90
44509;DHT22;30214;52.246;14.408;2023-08-07T02:33:16;13.60;99.90
44509;DHT22;30214;52.246;14.408;2023-08-07T02:35:44;13.50;99.90
44509;DHT22;30214;52.246;14.408;2023-08-07T02:38:11;13.60;99.90
44509;DHT22;30214;52.246;14.408;2023-08-07T02:40:38;13.60;99.90
44509;DHT22;30214;52.246;14.408;2023-08-07T02:43:07;13.60;99.90
44509;DHT22;30214;52.246;14.408;2023-08-07T02:45:36;13.60;99.90
44509;DHT22;30214;52.246;14.408;2023-08-07T02:48:04;13.60;99.90
44509;DHT22;30214;52.246;14.408;2023-08-07T02:50:31;13.70;99.90
44509;DHT22;30214;52.246;14.408;2023-08-07T02:52:59;13.70;99.90
44509;DHT22;30214;52.246;14.408;2023-08-07T02:55:26;13.70;99.90
44509;DHT22;30214;52.246;14.408;2023-08-07T02:57:53;13.70;99.90
44509;DHT22;30214;52.246;14.408;2023-08-07T03:00:20;13.70;99.90
44509;DHT22;30214;52.246;14.408;2023-08-07T03:02:50;13.70;99.90
44509;DHT22;30214;52.246;14.408;2023-08-07T03:05:19;13.70;99.90
44509;DHT22;30214;52.246;14.408;2023-08-07T03:07:46;13.70;99.90
44509;DHT22;30214;52.246;14.408;2023-08-07T03:10:13;13.70;99.90
44509;DHT22;30214;52.246;14.408;2023-08-07T03:12:40;13.80;99.90
44509;DHT22;30214;52.246;14.408;2023-08-07T03:15:07;13.80;99.90
44509;DHT22;30214;52.246;14.408;2023-08-07T03:17:34;13.70;99.90
44509;DHT22;30214;52.246;14.408;2023-08-07T03:20:01;13.70;99.90
44509;DHT22;30214;52.246;14.408;2023-08-07T03:22:30;13.60;99.90
44509;DHT22;30214;52.246;14.408;2023-08-07T03:24:57;13.60;99.90
44509;DHT22;30214;52.246;14.408;2023-08-07T03:27:24;13.70;99.90
44509;DHT22;30214;52.246;14.408;2023-08-07T03:29:51;13.70;99.90
44509;DHT22;30214;52.246;14.408;2023-08-07T03:32:18;13.70;99.90
44509;DHT22;30214;52.246;14.408;2023-08-07T03:34:45;13.70;99.90
44509;DHT22;30214;52.246;14.408;2023-08-07T03:37:14;13.70;99.90
44509;DHT22;30214;52.246;14.408;2023-08-07T03:39:42;13.70;99.90
44509;DHT22;30214;52.246;14.408;2023-08-07T03:42:14;13.70;99.90
44509;DHT22;30214;52.246;14.408;2023-08-07T03:44:42;13.70;99.90
44509;DHT22;30214;52.246;14.408;2023-08-07T03:47:11;13.70;99.90
44509;DHT22;30214;52.246;14.408;2023-08-07T03:49:38;13.70;99.90
44509;DHT22;30214;52.246;14.408;2023-08-07T03:52:05;13.80;99.90
44509;DHT22;30214;52.246;14.408;2023-08-07T03:54:32;13.70;99.90
44509;DHT22;30214;52.246;14.408;2023-08-07T03:57:01;13.80;99.90
44509;DHT22;30214;52.246;14.408;2023-08-07T03:59:28;13.80;99.90
44509;DHT22;30214;52.246;14.408;2023-08-07T04:01:55;13.80;99.90
44509;DHT22;30214;52.246;14.408;2023-08-07T04:04:24;13.90;99.90
44509;DHT22;30214;52.246;14.408;2023-08-07T04:06:52;13.80;99.90
44509;DHT22;30214;52.246;14.408;2023-08-07T04:09:19;13.90;99.90
44509;DHT22;30214;52.246;14.408;2023-08-07T04:11:46;13.90;99.90
44509;DHT22;30214;52.246;14.408;2023-08-07T04:14:14;14.00;99.90
44509;DHT22;30214;52.246;14.408;2023-08-07T04:16:41;14.10;99.90
44509;DHT22;30214;52.246;14.408;2023-08-07T04:19:09;14.20;99.90
44509;DHT22;30214;52.246;14.408;2023-08-07T04:21:36;14.40;99.90
44509;DHT22;30214;52.246;14.408;2023-08-07T04:24:03;14.70;99.90
44509;DHT22;30214;52.246;14.408;2023-08-07T04:26:35;14.60;99.90
44509;DHT22;30214;52.246;14.408;2023-08-07T04:29:03;14.50;99.90
44509;DHT22;30214;52.246;14.408;2023-08-07T04:31:31;14.50;99.90
44509;DHT22;30214;52.246;14.408;2023-08-07T04:33:58;14.50;99.90
44509;DHT22;30214;52.246;14.408;2023-08-07T04:36:25;14.50;99.90
44509;DHT22;30214;52.246;14.408;2023-08-07T04:38:52;14.70;99.90
44509;DHT22;30214;52.246;14.408;2023-08-07T04:41:21;14.90;99.90
44509;DHT22;30214;52.246;14.408;2023-08-07T04:43:48;15.00;99.90
44509;DHT22;30214;52.246;14.408;2023-08-07T04:46:15;15.20;99.90
44509;DHT22;30214;52.246;14.408;2023-08-07T04:48:43;15.10;99.90
44509;DHT22;30214;52.246;14.408;2023-08-07T04:51:10;15.10;99.90
44509;DHT22;30214;52.246;14.408;2023-08-07T04:53:37;14.90;99.90
44509;DHT22;30214;52.246;14.408;2023-08-07T04:56:04;14.70;99.90
44509;DHT22;30214;52.246;14.408;2023-08-07T04:58:31;14.80;99.90
44509;DHT22;30214;52.246;14.408;2023-08-07T05:00:58;14.80;99.90
44509;DHT22;30214;52.246;14.408;2023-08-07T05:03:26;14.80;99.90
44509;DHT22;30214;52.246;14.408;2023-08-07T05:05:59;14.80;99.90
44509;DHT22;30214;52.246;14.408;2023-08-07T05:08:26;14.90;99.90
44509;DHT22;30214;52.246;14.408;2023-08-07T05:10:53;15.00;99.90
44509;DHT22;30214;52.246;14.408;2023-08-07T05:13:20;15.30;99.90
44509;DHT22;30214;52.246;14.408;2023-08-07T05:15:48;15.40;99.90
44509;DHT22;30214;52.246;14.408;2023-08-07T05:18:15;15.50;99.90
44509;DHT22;30214;52.246;14.408;2023-08-07T05:20:42;15.50;99.90
44509;DHT22;30214;52.246;14.408;2023-08-07T05:23:11;15.40;99.90
44509;DHT22;30214;52.246;14.408;2023-08-07T05:25:38;15.40;99.90
44509;DHT22;30214;52.246;14.408;2023-08-07T05:28:05;15.40;99.90
44509;DHT22;30214;52.246;14.408;2023-08-07T05:30:32;15.40;99.90
44509;DHT22;30214;52.246;14.408;2023-08-07T05:32:59;15.40;99.90
44509;DHT22;30214;52.246;14.408;2023-08-07T05:35:26;15.40;99.90
44509;DHT22;30214;52.246;14.408;2023-08-07T05:37:53;15.30;99.90
44509;DHT22;30214;52.246;14.408;2023-08-07T05:40:21;15.30;99.90
44509;DHT22;30214;52.246;14.408;2023-08-07T05:42:48;15.40;99.90
44509;DHT22;30214;52.246;14.408;2023-08-07T05:45:15;15.40;99.90
44509;DHT22;30214;52.246;14.408;2023-08-07T05:47:42;15.40;99.90
44509;DHT22;30214;52.246;14.408;2023-08-07T05:50:09;15.40;99.90
44509;DHT22;30214;52.246;14.408;2023-08-07T05:52:36;15.50;99.90
44509;DHT22;30214;52.246;14.408;2023-08-07T05:55:03;15.60;99.90
44509;DHT22;30214;52.246;14.408;2023-08-07T05:57:32;15.60;99.90
44509;DHT22;30214;52.246;14.408;2023-08-07T05:59:59;15.70;99.90
44509;DHT22;30214;52.246;14.408;2023-08-07T06:02:37;15.90;99.90
44509;DHT22;30214;52.246;14.408;2023-08-07T06:05:05;15.80;99.90
44509;DHT22;30214;52.246;14.408;2023-08-07T06:07:32;15.80;99.90
44509;DHT22;30214;52.246;14.408;2023-08-07T06:09:59;15.70;99.90
44509;DHT22;30214;52.246;14.408;2023-08-07T06:12:26;15.60;99.90
44509;DHT22;30214;52.246;14.408;2023-08-07T06:14:54;15.50;99.90
44509;DHT22;30214;52.246;14.408;2023-08-07T06:17:21;15.60;99.90
44509;DHT22;30214;52.246;14.408;2023-08-07T06:19:48;15.70;99.90
44509;DHT22;30214;52.246;14.408;2023-08-07T06:22:15;15.90;99.90
44509;DHT22;30214;52.246;14.408;2023-08-07T06:24:42;16.20;99.90
44509;DHT22;30214;52.246;14.408;2023-08-07T06:27:09;16.40;99.90
44509;DHT22;30214;52.246;14.408;2023-08-07T06:29:36;16.50;99.90
44509;DHT22;30214;52.246;14.408;2023-08-07T06:32:06;16.80;99.90
44509;DHT22;30214;52.246;14.408;2023-08-07T06:34:33;16.80;99.90
44509;DHT22;30214;52.246;14.408;2023-08-07T06:37:04;16.80;99.90
44509;DHT22;30214;52.246;14.408;2023-08-07T06:39:31;17.10;99.90
44509;DHT22;30214;52.246;14.408;2023-08-07T06:41:58;17.20;99.90
44509;DHT22;30214;52.246;14.408;2023-08-07T06:44:30;17.30;99.90
44509;DHT22;30214;52.246;14.408;2023-08-07T06:46:57;17.30;99.90
44509;DHT22;30214;52.246;14.408;2023-08-07T06:49:26;17.30;99.90
44509;DHT22;30214;52.246;14.408;2023-08-07T06:51:53;17.30;99.90
44509;DHT22;30214;52.246;14.408;2023-08-07T06:54:20;17.10;99.90
44509;DHT22;30214;52.246;14.408;2023-08-07T06:56:46;17.10;99.90
44509;DHT22;30214;52.246;14.408;2023-08-07T06:59:13;17.20;99.90
44509;DHT22;30214;52.246;14.408;2023-08-07T07:01:40;17.40;99.90
44509;DHT22;30214;52.246;14.408;2023-08-07T07:04:07;17.40;99.90
44509;DHT22;30214;52.246;14.408;2023-08-07T07:06:37;17.30;99.90
44509;DHT22;30214;52.246;14.408;2023-08-07T07:09:04;17.30;99.90
44509;DHT22;30214;52.246;14.408;2023-08-07T07:11:31;17.30;99.90
44509;DHT22;30214;52.246;14.408;2023-08-07T07:14:00;17.30;99.90
44509;DHT22;30214;52.246;14.408;2023-08-07T07:16:27;17.20;99.90
44509;DHT22;30214;52.246;14.408;2023-08-07T07:18:54;17.40;99.90
44509;DHT22;30214;52.246;14.408;2023-08-07T07:21:21;17.80;99.90
44509;DHT22;30214;52.246;14.408;2023-08-07T07:23:50;17.80;99.90
44509;DHT22;30214;52.246;14.408;2023-08-07T07:26:17;17.90;99.90
44509;DHT22;30214;52.246;14.408;2023-08-07T07:28:44;18.00;99.90
44509;DHT22;30214;52.246;14.408;2023-08-07T07:31:11;18.20;99.90
44509;DHT22;30214;52.246;14.408;2023-08-07T07:33:38;18.10;99.90
44509;DHT22;30214;52.246;14.408;2023-08-07T07:36:07;18.10;99.90
44509;DHT22;30214;52.246;14.408;2023-08-07T07:38:34;18.30;99.90
44509;DHT22;30214;52.246;14.408;2023-08-07T07:41:02;18.40;99.90
44509;DHT22;30214;52.246;14.408;2023-08-07T07:43:29;18.40;99.90
44509;DHT22;30214;52.246;14.408;2023-08-07T07:45:57;18.30;99.90
44509;DHT22;30214;52.246;14.408;2023-08-07T07:48:24;18.20;99.90
44509;DHT22;30214;52.246;14.408;2023-08-07T07:50:51;18.30;99.90
44509;DHT22;30214;52.246;14.408;2023-08-07T07:53:19;18.30;99.90
44509;DHT22;30214;52.246;14.408;2023-08-07T07:55:47;18.10;99.90
44509;DHT22;30214;52.246;14.408;2023-08-07T07:58:16;18.20;99.90
44509;DHT22;30214;52.246;14.408;2023-08-07T08:00:43;18.50;99.90
44509;DHT22;30214;52.246;14.408;2023-08-07T08:03:10;18.50;99.90
44509;DHT22;30214;52.246;14.408;2023-08-07T08:05:38;18.70;99.90
44509;DHT22;30214;52.246;14.408;2023-08-07T08:08:05;19.00;99.90
44509;DHT22;30214;52.246;14.408;2023-08-07T08:10:33;19.10;99.90
44509;DHT22;30214;52.246;14.408;2023-08-07T08:13:01;19.00;99.90
44509;DHT22;30214;52.246;14.408;2023-08-07T08:15:30;18.90;99.90
44509;DHT22;30214;52.246;14.408;2023-08-07T08:17:57;19.20;99.90
44509;DHT22;30214;52.246;14.408;2023-08-07T08:20:24;19.40;99.90
44509;DHT22;30214;52.246;14.408;2023-08-07T08:22:51;19.50;99.90
44509;DHT22;30214;52.246;14.408;2023-08-07T08:25:18;19.50;99.90
44509;DHT22;30214;52.246;14.408;2023-08-07T08:27:45;19.70;99.90
44509;DHT22;30214;52.246;14.408;2023-08-07T08:30:12;20.00;99.90
44509;DHT22;30214;52.246;14.408;2023-08-07T08:32:42;20.20;99.90
44509;DHT22;30214;52.246;14.408;2023-08-07T08:35:10;20.00;99.90
44509;DHT22;30214;52.246;14.408;2023-08-07T08:37:37;19.90;99.90
44509;DHT22;30214;52.246;14.408;2023-08-07T08:40:05;19.90;99.90
44509;DHT22;30214;52.246;14.408;2023-08-07T08:42:34;19.80;99.90
44509;DHT22;30214;52.246;14.408;2023-08-07T08:45:02;19.90;99.90
44509;DHT22;30214;52.246;14.408;2023-08-07T08:47:32;19.70;99.90
44509;DHT22;30214;52.246;14.408;2023-08-07T08:50:07;19.70;99.90
44509;DHT22;30214;52.246;14.408;2023-08-07T08:52:42;19.70;99.90
44509;DHT22;30214;52.246;14.408;2023-08-07T08:55:11;19.80;99.90
44509;DHT22;30214;52.246;14.408;2023-08-07T08:57:39;19.60;99.90
44509;DHT22;30214;52.246;14.408;2023-08-07T09:00:07;19.50;99.90
44509;DHT22;30214;52.246;14.408;2023-08-07T09:02:44;19.40;99.90
44509;DHT22;30214;52.246;14.408;2023-08-07T09:05:14;19.40;99.90
44509;DHT22;30214;52.246;14.408;2023-08-07T09:07:42;19.30;99.90
44509;DHT22;30214;52.246;14.408;2023-08-07T09:10:13;19.30;99.90
44509;DHT22;30214;52.246;14.408;2023-08-07T09:12:41;19.40;99.90
44509;DHT22;30214;52.246;14.408;2023-08-07T09:15:11;19.40;99.90
44509;DHT22;30214;52.246;14.408;2023-08-07T09:17:45;19.60;99.90
44509;DHT22;30214;52.246;14.408;2023-08-07T09:20:14;19.60;99.90
44509;DHT22;30214;52.246;14.408;2023-08-07T09:22:41;19.50;99.90
44509;DHT22;30214;52.246;14.408;2023-08-07T09:25:09;19.50;99.90
44509;DHT22;30214;52.246;14.408;2023-08-07T09:27:37;19.70;99.90
44509;DHT22;30214;52.246;14.408;2023-08-07T09:30:06;19.90;99.90
44509;DHT22;30214;52.246;14.408;2023-08-07T09:32:35;20.10;99.90
44509;DHT22;30214;52.246;14.408;2023-08-07T09:35:03;20.20;99.90
44509;DHT22;30214;52.246;14.408;2023-08-07T09:37:32;20.10;99.90
44509;DHT22;30214;52.246;14.408;2023-08-07T09:40:03;19.90;99.90
44509;DHT22;30214;52.246;14.408;2023-08-07T09:42:31;19.50;99.90
44509;DHT22;30214;52.246;14.408;2023-08-07T09:45:00;19.00;99.90
44509;DHT22;30214;52.246;14.408;2023-08-07T09:47:28;18.60;99.90
44509;DHT22;30214;52.246;14.408;2023-08-07T09:49:55;18.30;99.90
44509;DHT22;30214;52.246;14.408;2023-08-07T09:52:24;18.20;99.90
44509;DHT22;30214;52.246;14.408;2023-08-07T09:54:56;18.10;99.90
44509;DHT22;30214;52.246;14.408;2023-08-07T09:57:25;17.90;99.90
44509;DHT22;30214;52.246;14.408;2023-08-07T09:59:52;17.80;99.90
44509;DHT22;30214;52.246;14.408;2023-08-07T10:02:21;17.60;99.90
44509;DHT22;30214;52.246;14.408;2023-08-07T10:04:48;17.40;99.90
44509;DHT22;30214;52.246;14.408;2023-08-07T10:07:17;17.10;99.90
44509;DHT22;30214;52.246;14.408;2023-08-07T10:09:44;17.00;99.90
44509;DHT22;30214;52.246;14.408;2023-08-07T10:12:19;17.20;99.90
44509;DHT22;30214;52.246;14.408;2023-08-07T10:14:46;17.30;99.90
44509;DHT22;30214;52.246;14.408;2023-08-07T10:17:14;17.50;99.90
44509;DHT22;30214;52.246;14.408;2023-08-07T10:19:40;17.80;99.90
44509;DHT22;30214;52.246;14.408;2023-08-07T10:22:07;17.90;99.90
44509;DHT22;30214;52.246;14.408;2023-08-07T10:24:36;18.10;99.90
44509;DHT22;30214;52.246;14.408;2023-08-07T10:27:07;18.10;99.90
44509;DHT22;30214;52.246;14.408;2023-08-07T10:29:36;18.10;99.90
44509;DHT22;30214;52.246;14.408;2023-08-07T10:32:05;18.10;99.90
44509;DHT22;30214;52.246;14.408;2023-08-07T10:34:34;18.00;99.90
44509;DHT22;30214;52.246;14.408;2023-08-07T10:37:01;17.90;99.90
44509;DHT22;30214;52.246;14.408;2023-08-07T10:39:28;17.90;99.90
44509;DHT22;30214;52.246;14.408;2023-08-07T10:41:55;17.80;99.90
44509;DHT22;30214;52.246;14.408;2023-08-07T10:44:23;17.50;99.90
44509;DHT22;30214;52.246;14.408;2023-08-07T10:46:53;17.40;99.90
44509;DHT22;30214;52.246;14.408;2023-08-07T10:49:36;17.30;99.90
44509;DHT22;30214;52.246;14.408;2023-08-07T10:52:07;17.60;99.90
44509;DHT22;30214;52.246;14.408;2023-08-07T10:54:38;17.90;99.90
44509;DHT22;30214;52.246;14.408;2023-08-07T10:57:10;18.20;99.90
44509;DHT22;30214;52.246;14.408;2023-08-07T10:59:38;18.60;99.90
44509;DHT22;30214;52.246;14.408;2023-08-07T11:02:11;18.90;99.90
44509;DHT22;30214;52.246;14.408;2023-08-07T11:04:40;19.00;99.90
44509;DHT22;30214;52.246;14.408;2023-08-07T11:07:07;19.20;99.90
44509;DHT22;30214;52.246;14.408;2023-08-07T11:09:34;19.30;99.90
44509;DHT22;30214;52.246;14.408;2023-08-07T11:12:02;19.40;99.90
44509;DHT22;30214;52.246;14.408;2023-08-07T11:14:29;19.40;99.90
44509;DHT22;30214;52.246;14.408;2023-08-07T11:16:57;19.40;99.90
44509;DHT22;30214;52.246;14.408;2023-08-07T11:19:26;19.40;99.90
44509;DHT22;30214;52.246;14.408;2023-08-07T11:21:53;19.40;99.90
44509;DHT22;30214;52.246;14.408;2023-08-07T11:24:22;19.40;99.90
44509;DHT22;30214;52.246;14.408;2023-08-07T11:26:50;19.50;99.90
44509;DHT22;30214;52.246;14.408;2023-08-07T11:29:18;19.60;99.90
44509;DHT22;30214;52.246;14.408;2023-08-07T11:31:45;19.60;99.90
44509;DHT22;30214;52.246;14.408;2023-08-07T11:34:12;19.70;99.90
44509;DHT22;30214;52.246;14.408;2023-08-07T11:36:43;19.60;99.90
44509;DHT22;30214;52.246;14.408;2023-08-07T11:39:10;19.80;99.90
44509;DHT22;30214;52.246;14.408;2023-08-07T11:41:37;19.70;99.90
44509;DHT22;30214;52.246;14.408;2023-08-07T11:44:07;19.60;99.90
44509;DHT22;30214;52.246;14.408;2023-08-07T11:46:34;19.70;99.90
44509;DHT22;30214;52.246;14.408;2023-08-07T11:49:01;19.70;99.90
44509;DHT22;30214;52.246;14.408;2023-08-07T11:51:29;19.80;99.90
44509;DHT22;30214;52.246;14.408;2023-08-07T11:53:58;20.00;99.90
44509;DHT22;30214;52.246;14.408;2023-08-07T11:56:25;20.10;99.90
44509;DHT22;30214;52.246;14.408;2023-08-07T11:58:52;20.10;99.90
44509;DHT22;30214;52.246;14.408;2023-08-07T12:01:21;20.10;99.90
44509;DHT22;30214;52.246;14.408;2023-08-07T12:03:53;20.10;99.90
44509;DHT22;30214;52.246;14.408;2023-08-07T12:06:22;19.90;99.90
44509;DHT22;30214;52.246;14.408;2023-08-07T12:08:50;19.70;99.90
44509;DHT22;30214;52.246;14.408;2023-08-07T12:11:22;19.50;99.90
44509;DHT22;30214;52.246;14.408;2023-08-07T12:13:50;19.30;99.90
44509;DHT22;30214;52.246;14.408;2023-08-07T12:16:17;19.40;99.90
44509;DHT22;30214;52.246;14.408;2023-08-07T12:18:58;19.40;99.90
44509;DHT22;30214;52.246;14.408;2023-08-07T12:21:26;19.60;99.90
44509;DHT22;30214;52.246;14.408;2023-08-07T12:23:58;19.80;99.90
44509;DHT22;30214;52.246;14.408;2023-08-07T12:26:27;19.80;99.90
44509;DHT22;30214;52.246;14.408;2023-08-07T12:28:54;19.70;99.90
44509;DHT22;30214;52.246;14.408;2023-08-07T12:31:21;19.60;99.90
44509;DHT22;30214;52.246;14.408;2023-08-07T12:33:48;19.50;99.90
44509;DHT22;30214;52.246;14.408;2023-08-07T12:36:16;19.50;99.90
44509;DHT22;30214;52.246;14.408;2023-08-07T12:38:43;19.70;99.90
44509;DHT22;30214;52.246;14.408;2023-08-07T12:41:10;19.90;99.90
44509;DHT22;30214;52.246;14.408;2023-08-07T12:43:38;19.90;99.90
44509;DHT22;30214;52.246;14.408;2023-08-07T12:46:05;19.70;99.90
44509;DHT22;30214;52.246;14.408;2023-08-07T12:48:32;19.40;99.90
44509;DHT22;30214;52.246;14.408;2023-08-07T12:50:59;19.40;99.90
44509;DHT22;30214;52.246;14.408;2023-08-07T12:53:26;19.30;99.90
44509;DHT22;30214;52.246;14.408;2023-08-07T12:55:54;19.50;99.90
44509;DHT22;30214;52.246;14.408;2023-08-07T12:58:21;19.80;99.90
44509;DHT22;30214;52.246;14.408;2023-08-07T13:00:52;19.90;99.90
44509;DHT22;30214;52.246;14.408;2023-08-07T13:03:19;20.00;99.90
44509;DHT22;30214;52.246;14.408;2023-08-07T13:05:46;20.00;99.90
44509;DHT22;30214;52.246;14.408;2023-08-07T13:08:13;19.90;99.90
44509;DHT22;30214;52.246;14.408;2023-08-07T13:10:40;19.80;99.90
44509;DHT22;30214;52.246;14.408;2023-08-07T13:13:07;19.80;99.90
44509;DHT22;30214;52.246;14.408;2023-08-07T13:15:34;20.10;99.90
44509;DHT22;30214;52.246;14.408;2023-08-07T13:18:02;20.30;99.90
44509;DHT22;30214;52.246;14.408;2023-08-07T13:20:30;20.60;99.90
44509;DHT22;30214;52.246;14.408;2023-08-07T13:23:00;20.80;99.90
44509;DHT22;30214;52.246;14.408;2023-08-07T13:25:31;21.00;99.90
44509;DHT22;30214;52.246;14.408;2023-08-07T13:27:58;21.10;99.90
44509;DHT22;30214;52.246;14.408;2023-08-07T13:30:30;21.10;99.90
44509;DHT22;30214;52.246;14.408;2023-08-07T13:32:57;21.10;99.90
44509;DHT22;30214;52.246;14.408;2023-08-07T13:35:25;21.10;99.90
44509;DHT22;30214;52.246;14.408;2023-08-07T13:37:52;21.10;99.90
44509;DHT22;30214;52.246;14.408;2023-08-07T13:40:19;21.00;99.90
44509;DHT22;30214;52.246;14.408;2023-08-07T13:42:46;21.00;99.90
44509;DHT22;30214;52.246;14.408;2023-08-07T13:45:13;20.90;99.90
44509;DHT22;30214;52.246;14.408;2023-08-07T13:47:42;20.70;99.90
44509;DHT22;30214;52.246;14.408;2023-08-07T13:50:09;20.60;99.90
44509;DHT22;30214;52.246;14.408;2023-08-07T13:52:39;20.30;99.90
44509;DHT22;30214;52.246;14.408;2023-08-07T13:55:07;20.10;99.90
44509;DHT22;30214;52.246;14.408;2023-08-07T13:57:35;20.00;99.90
44509;DHT22;30214;52.246;14.408;2023-08-07T14:00:03;20.10;99.90
44509;DHT22;30214;52.246;14.408;2023-08-07T14:02:30;19.90;99.90
44509;DHT22;30214;52.246;14.408;2023-08-07T14:05:00;19.90;99.90
44509;DHT22;30214;52.246;14.408;2023-08-07T14:07:27;19.90;99.90
44509;DHT22;30214;52.246;14.408;2023-08-07T14:09:56;19.90;99.90
44509;DHT22;30214;52.246;14.408;2023-08-07T14:12:23;19.70;99.90
44509;DHT22;30214;52.246;14.408;2023-08-07T14:14:50;19.40;99.90
44509;DHT22;30214;52.246;14.408;2023-08-07T14:17:17;19.30;99.90
44509;DHT22;30214;52.246;14.408;2023-08-07T14:19:44;19.30;99.90
44509;DHT22;30214;52.246;14.408;2023-08-07T14:22:12;19.20;99.90
44509;DHT22;30214;52.246;14.408;2023-08-07T14:24:38;19.10;99.90
44509;DHT22;30214;52.246;14.408;2023-08-07T14:27:07;19.00;99.90
44509;DHT22;30214;52.246;14.408;2023-08-07T14:29:34;19.10;99.90
44509;DHT22;30214;52.246;14.408;2023-08-07T14:32:01;19.20;99.90
44509;DHT22;30214;52.246;14.408;2023-08-07T14:34:28;19.20;99.90
44509;DHT22;30214;52.246;14.408;2023-08-07T14:36:55;19.30;99.90
44509;DHT22;30214;52.246;14.408;2023-08-07T14:39:22;19.30;99.90
44509;DHT22;30214;52.246;14.408;2023-08-07T14:41:49;19.40;99.90
44509;DHT22;30214;52.246;14.408;2023-08-07T14:44:19;19.40;99.90
44509;DHT22;30214;52.246;14.408;2023-08-07T14:46:46;19.40;99.90
44509;DHT22;30214;52.246;14.408;2023-08-07T14:49:13;19.40;99.90
44509;DHT22;30214;52.246;14.408;2023-08-07T14:51:40;19.50;99.90
44509;DHT22;30214;52.246;14.408;2023-08-07T14:54:07;19.50;99.90
44509;DHT22;30214;52.246;14.408;2023-08-07T14:56:34;19.30;99.90
44509;DHT22;30214;52.246;14.408;2023-08-07T14:59:01;19.30;99.90
44509;DHT22;30214;52.246;14.408;2023-08-07T15:01:29;19.30;99.90
44509;DHT22;30214;52.246;14.408;2023-08-07T15:03:57;19.30;99.90
44509;DHT22;30214;52.246;14.408;2023-08-07T15:06:24;19.40;99.90
44509;DHT22;30214;52.246;14.408;2023-08-07T15:08:51;19.40;99.90
44509;DHT22;30214;52.246;14.408;2023-08-07T15:11:18;19.30;99.90
44509;DHT22;30214;52.246;14.408;2023-08-07T15:13:45;19.30;99.90
44509;DHT22;30214;52.246;14.408;2023-08-07T15:16:12;19.20;99.90
44509;DHT22;30214;52.246;14.408;2023-08-07T15:18:41;19.10;99.90
44509;DHT22;30214;52.246;14.408;2023-08-07T15:21:08;18.90;99.90